Time;durP1;ratioP1;P1;durP2;ratioP2;P2;SDS_P1;SDS_P2;PMS_P1;PMS_P2;Temp;Humidity;BMP_temperature;BMP_pressure;BME280_temperature;BME280_humidity;BME280_pressure;Samples;Min_cycle;Max_cycle;Signal;HPM_P1;HPM_P2
2022/12/08 09:12:53;;;;;;;16.97;11.80;;;1.80;99.90;;;;;;5129082;27;20578;-80
2022/12/08 09:16:55;;;;;;;21.53;13.90;;;1.80;99.90;;;;;;5139535;27;20270;-79
2022/12/08 09:21:30;;;;;;;23.70;16.00;;;1.90;99.90;;;;;;5140530;27;20271;-80
2022/12/08 09:23:57;;;;;;;22.30;14.77;;;2.00;99.90;;;;;;5133119;27;20427;-80
2022/12/08 09:26:24;;;;;;;22.37;15.23;;;2.00;99.90;;;;;;5155915;27;20202;-80
2022/12/08 09:28:51;;;;;;;23.93;15.77;;;2.00;99.90;;;;;;5154091;27;20253;-80
2022/12/08 09:31:41;;;;;;;25.63;16.50;;;2.10;99.90;;;;;;5139527;27;20276;-80
2022/12/08 09:35:51;;;;;;;22.73;14.33;;;2.20;99.90;;;;;;5138741;27;20297;-79
2022/12/08 09:40:01;;;;;;;20.33;13.20;;;2.20;99.90;;;;;;5139105;27;20286;-80
2022/12/08 09:44:27;;;;;;;18.80;13.33;;;2.20;99.90;;;;;;5151206;27;20276;-80
2022/12/08 09:48:21;;;;;;;20.60;13.93;;;2.30;99.90;;;;;;5139127;27;20286;-79
2022/12/08 09:53:04;;;;;;;18.57;12.17;;;2.30;99.90;;;;;;5138743;27;20275;-80
2022/12/08 09:57:23;;;;;;;17.10;12.60;;;2.10;99.90;;;;;;5138197;27;20275;-80
2022/12/08 10:02:23;;;;;;;18.03;11.43;;;2.20;99.90;;;;;;5138321;27;20646;-80
2022/12/08 10:07:11;;;;;;;29.57;21.93;;;2.50;99.90;;;;;;5137537;27;20328;-80
2022/12/08 10:13:11;;;;;;;21.20;14.77;;;2.50;99.90;;;;;;5135934;27;20372;-80
2022/12/08 10:17:49;;;;;;;18.87;12.93;;;2.60;99.90;;;;;;5135628;27;20605;-79
2022/12/08 10:20:21;;;;;;;20.07;12.80;;;2.60;99.90;;;;;;5115645;28;20174;-80
2022/12/08 10:23:01;;;;;;;15.43;11.10;;;2.70;99.90;;;;;;5114328;28;20254;-81
2022/12/08 10:27:53;;;;;;;17.43;11.83;;;2.70;99.90;;;;;;5141049;27;20275;-80
2022/12/08 10:30:20;;;;;;;17.00;11.60;;;2.80;99.90;;;;;;5141427;28;20192;-80
2022/12/08 10:32:51;;;;;;;18.77;13.10;;;2.80;99.90;;;;;;5140715;28;20159;-80
2022/12/08 10:35:19;;;;;;;23.90;15.33;;;2.90;99.90;;;;;;5128557;28;20191;-80
2022/12/08 10:38:00;;;;;;;25.87;17.43;;;3.00;99.90;;;;;;5138651;28;20659;-80
2022/12/08 10:40:28;;;;;;;24.23;15.77;;;3.00;99.90;;;;;;5140819;27;20178;-80
2022/12/08 10:42:57;;;;;;;21.87;16.30;;;3.10;99.90;;;;;;5139788;27;20577;-80
2022/12/08 10:45:30;;;;;;;22.03;15.63;;;3.20;99.90;;;;;;5140138;27;20204;-80
2022/12/08 10:47:55;;;;;;;19.43;13.10;;;3.30;99.90;;;;;;5138651;28;20171;-80
2022/12/08 10:50:31;;;;;;;21.50;15.73;;;3.30;99.90;;;;;;5139139;28;20586;-81
2022/12/08 10:53:07;;;;;;;18.47;14.30;;;3.20;99.90;;;;;;5140056;27;20166;-81
2022/12/08 10:55:49;;;;;;;22.67;15.47;;;3.20;99.90;;;;;;5140828;27;20688;-81
2022/12/08 10:58:31;;;;;;;23.03;15.13;;;3.20;99.90;;;;;;5138642;28;20199;-81
2022/12/08 11:01:19;;;;;;;19.00;13.60;;;3.10;99.90;;;;;;5139276;28;20537;-81
2022/12/08 11:03:52;;;;;;;19.83;15.13;;;3.10;99.90;;;;;;5138215;27;20180;-80
2022/12/08 11:06:24;;;;;;;19.33;13.97;;;3.10;99.90;;;;;;5139745;28;20653;-80
2022/12/08 11:08:54;;;;;;;19.77;14.03;;;3.00;99.90;;;;;;5138529;28;20180;-81
2022/12/08 11:11:21;;;;;;;24.17;15.00;;;3.00;99.90;;;;;;5139021;28;20649;-80
2022/12/08 11:13:50;;;;;;;21.50;16.07;;;2.90;99.90;;;;;;5139826;28;20232;-80
2022/12/08 11:16:17;;;;;;;20.50;14.27;;;2.70;99.90;;;;;;5140641;27;20279;-80
2022/12/08 11:18:46;;;;;;;24.27;15.30;;;2.60;99.90;;;;;;5141391;27;20228;-80
2022/12/08 11:21:16;;;;;;;21.37;14.97;;;2.70;99.90;;;;;;5138947;28;20267;-81
2022/12/08 11:23:46;;;;;;;23.43;15.70;;;2.60;99.90;;;;;;5138924;28;20655;-81
2022/12/08 11:26:18;;;;;;;22.57;14.90;;;2.60;99.90;;;;;;5140245;27;20209;-81
2022/12/08 11:28:43;;;;;;;22.43;15.33;;;2.40;99.90;;;;;;5139716;28;20573;-81
2022/12/08 11:47:30;;;;;;;21.20;14.30;;;2.10;99.90;;;;;;5138772;27;20271;-79
2022/12/08 11:51:38;;;;;;;21.37;14.60;;;2.30;99.90;;;;;;5139351;27;20281;-79
2022/12/08 11:54:24;;;;;;;24.57;15.23;;;2.50;99.90;;;;;;5141334;28;20404;-79
2022/12/08 11:56:56;;;;;;;19.50;14.20;;;2.70;99.90;;;;;;5119589;28;20621;-80
2022/12/08 11:59:30;;;;;;;21.20;14.17;;;2.70;99.90;;;;;;5102181;28;20827;-80
2022/12/08 12:02:01;;;;;;;21.97;14.83;;;2.80;99.90;;;;;;5101423;28;20179;-81
2022/12/08 12:04:57;;;;;;;19.90;12.83;;;2.90;99.90;;;;;;5119377;28;20201;-81
2022/12/08 12:07:37;;;;;;;22.70;14.13;;;2.90;99.90;;;;;;5101903;28;20233;-80
2022/12/08 12:10:31;;;;;;;22.03;15.63;;;3.00;99.90;;;;;;5120236;28;20199;-80
2022/12/08 12:13:17;;;;;;;21.33;15.70;;;3.00;99.90;;;;;;5100798;28;20583;-81
2022/12/08 12:16:25;;;;;;;23.47;16.47;;;3.10;99.90;;;;;;5118435;28;20263;-81
2022/12/08 12:18:58;;;;;;;22.13;14.70;;;3.10;99.90;;;;;;5100230;28;20254;-80
2022/12/08 12:21:26;;;;;;;17.40;13.13;;;3.10;99.90;;;;;;5099768;28;20180;-80
2022/12/08 12:24:06;;;;;;;18.73;13.93;;;3.10;99.90;;;;;;5108293;28;20191;-80
2022/12/08 12:26:36;;;;;;;26.67;19.57;;;3.20;99.90;;;;;;5135725;28;20173;-81
2022/12/08 12:29:06;;;;;;;23.87;15.23;;;3.20;99.90;;;;;;5128514;28;20187;-80
2022/12/08 12:31:42;;;;;;;23.23;16.73;;;3.20;99.90;;;;;;5101539;28;20566;-80
2022/12/08 12:34:15;;;;;;;21.13;14.27;;;2.80;99.90;;;;;;5126456;28;20171;-81
2022/12/08 12:36:57;;;;;;;21.23;15.60;;;2.80;99.90;;;;;;5111202;28;20540;-81
2022/12/08 12:39:28;;;;;;;19.63;13.40;;;2.70;99.90;;;;;;5115074;28;20166;-81
2022/12/08 12:42:01;;;;;;;26.60;16.23;;;2.70;99.90;;;;;;5123376;28;20176;-81
2022/12/08 12:44:27;;;;;;;21.63;14.93;;;2.60;99.90;;;;;;5113804;28;20201;-81
2022/12/08 12:46:55;;;;;;;22.53;14.97;;;2.50;99.90;;;;;;5101997;28;20187;-81
2022/12/08 12:49:39;;;;;;;22.97;15.93;;;2.50;99.90;;;;;;5101379;28;20177;-82
2022/12/08 12:52:14;;;;;;;27.90;19.67;;;2.50;99.90;;;;;;5118571;28;20680;-82
2022/12/08 12:54:44;;;;;;;27.43;16.13;;;2.40;99.90;;;;;;5129604;28;20198;-82
2022/12/08 13:11:03;;;;;;;22.97;14.27;;;2.40;99.90;;;;;;5134982;27;20283;-81
2022/12/08 13:15:03;;;;;;;21.23;14.63;;;2.60;99.90;;;;;;5134675;27;20294;-80
2022/12/08 13:18:41;;;;;;;23.10;15.73;;;2.70;99.90;;;;;;5132966;27;20282;-80
2022/12/08 13:21:07;;;;;;;21.17;14.33;;;2.50;99.90;;;;;;5134660;28;20160;-80
2022/12/08 13:58:24;;;;;;;25.03;16.97;;;2.50;99.90;;;;;;5135749;27;20290;-80
2022/12/08 14:02:36;;;;;;;21.90;14.50;;;2.50;99.90;;;;;;5135935;27;20267;-79
2022/12/08 14:07:00;;;;;;;22.13;14.83;;;2.60;99.90;;;;;;5137034;27;20282;-80
2022/12/08 14:12:02;;;;;;;22.33;14.43;;;2.60;99.90;;;;;;5136922;27;20280;-79
2022/12/08 14:15:12;;;;;;;26.47;17.73;;;2.50;99.90;;;;;;5136659;27;20291;-79
